Alakanuk, Alaska
Current Conditions -  °F | °C
As of 9:56 PM on Thursday 18 Dec 2014 (Local Time) from PAEM Reporting Station
Overcast Overcast  
Wind Chill: 12°   Ceiling: 6500
Heat Index: 21°   Visibility: 10mi
Dew Point: 16°   Wind: 8mph
Humidity: 80%   Direction: 50°NE
Pressure: 29.32"   Gusts: NA
Location:  62.69°N, 164.62°W
Report Text: PAEM 190656Z AUTO 05007KT 10SM FEW050 OVC065 M06/M09 A2932 RMK AO1
Loading
Personal Weather Stations






























Interactive Weather Map New forecast layout! Learn more

10-Day Weather Forecast

Advertisements
Track Severe Weather on mobile